Malo, Washington
Current Conditions -  °F | °C
As of 4:53 AM on Friday 24 Oct 2014 (Local Time) from KOMK Reporting Station
Clear Clear  
Wind Chill: 38°   Ceiling: Unl
Heat Index: 38°   Visibility: 10mi
Dew Point: 32°   Wind: 3mph
Humidity: 79%   Direction: 290°WNW
Pressure: 30.02"   Gusts: NA
Location:  48.8°N, 118.61°W
Report Text: KOMK 241153Z AUTO 29003KT 10SM CLR 03/00 A3002 RMK AO2 SLP170 T00330000 10072 20028 51010
Loading
Personal Weather Stations






























Interactive Weather Map
Tropical Storm Tracking
New forecast layout! Learn more

10-Day Weather Forecast

Advertisements
Track Severe Weather on mobile